Terminal Aerodrome Forecast
Issued by NWS Chicago, IL

Home | Current Version | Previous Version | Graphics & Text | Print | Product List | Glossary On
Versions: 1 2 3 4 5 6 7 8 9 10 11 12 13 14 15 16 17 18 19 20 21 22 23 24 25 26 27 28
840
FTUS43 KLOT 230523
TAFRFD
TAF
KRFD 230523Z 2306/2406 20008KT P6SM BKN025 OVC035
     FM230800 20006KT P6SM BKN020 OVC035
     FM231500 20009KT P6SM -SHRA BKN020 OVC040
     FM231800 21007KT 5SM SHRA VCTS BKN025CB OVC040
     FM232100 23005KT 6SM -SHRA BKN025 OVC040
     FM240100 06005KT P6SM VCSH OVC025=

USA.gov is the U.S. government's official web portal to all federal, state and local government web resources and services.